Time;durP1;ratioP1;P1;durP2;ratioP2;P2;SDS_P1;SDS_P2;PMS_P1;PMS_P2;Temp;Humidity;BMP_temperature;BMP_pressure;BME280_temperature;BME280_humidity;BME280_pressure;Samples;Min_cycle;Max_cycle;Signal;HPM_P1;HPM_P2
2023/05/27 00:01:04;;;;;;;10.38;6.75;;;384.80;2329.60;;;;;;5013006;28;20561;-53
2023/05/27 00:03:29;;;;;;;8.98;6.32;;;384.90;2329.60;;;;;;5012919;28;20021;-56
2023/05/27 00:05:55;;;;;;;10.48;7.10;;;384.70;2329.60;;;;;;5012500;28;20040;-57
2023/05/27 00:08:21;;;;;;;11.50;8.00;;;384.60;2329.60;;;;;;5020561;28;20038;-54
2023/05/27 00:10:48;;;;;;;9.68;6.40;;;384.50;2329.60;;;;;;5018566;28;20026;-54
2023/05/27 00:13:14;;;;;;;11.98;7.55;;;384.40;2329.60;;;;;;5012818;28;20032;-57
2023/05/27 00:15:40;;;;;;;12.73;7.63;;;384.50;2329.60;;;;;;5018379;28;20025;-54
2023/05/27 00:18:06;;;;;;;13.07;7.60;;;384.60;2329.60;;;;;;5031900;28;20029;-55
2023/05/27 00:20:32;;;;;;;11.77;7.28;;;384.60;2329.60;;;;;;5016868;28;20025;-58
2023/05/27 00:23:02;;;;;;;13.15;7.10;;;384.50;2329.60;;;;;;5031902;28;20095;-55
2023/05/27 00:25:27;;;;;;;10.10;6.85;;;384.50;2329.60;;;;;;5031476;28;20615;-55
2023/05/27 00:27:54;;;;;;;12.25;7.18;;;384.50;2329.60;;;;;;5032342;28;20041;-58
2023/05/27 00:30:20;;;;;;;9.77;6.28;;;384.40;2329.60;;;;;;5032005;28;20032;-55
2023/05/27 00:32:45;;;;;;;9.45;6.68;;;384.40;2329.60;;;;;;5032113;28;20458;-56
2023/05/27 00:35:11;;;;;;;8.68;6.32;;;384.40;2329.60;;;;;;5032160;28;20033;-53
2023/05/27 00:37:37;;;;;;;13.50;7.25;;;384.20;2329.60;;;;;;5031682;28;20045;-54
2023/05/27 00:40:04;;;;;;;10.15;6.68;;;384.20;2329.60;;;;;;5031990;28;20080;-55
2023/05/27 00:42:30;;;;;;;9.13;6.85;;;384.20;2329.60;;;;;;5031512;28;20124;-56
2023/05/27 00:44:56;;;;;;;10.93;7.13;;;384.20;2329.60;;;;;;5031843;28;20144;-55
2023/05/27 00:47:22;;;;;;;9.30;6.50;;;384.10;2329.60;;;;;;5031914;28;20032;-54
2023/05/27 00:49:49;;;;;;;11.07;7.43;;;384.10;2329.60;;;;;;5031790;28;20030;-56
2023/05/27 00:52:15;;;;;;;9.20;5.95;;;384.10;2329.60;;;;;;5031866;28;20022;-55
2023/05/27 00:54:41;;;;;;;8.55;6.50;;;384.10;2329.60;;;;;;5031463;28;20071;-57
2023/05/27 00:57:07;;;;;;;8.77;6.38;;;384.10;2329.60;;;;;;5031677;28;20017;-56
2023/05/27 00:59:33;;;;;;;9.80;6.65;;;384.10;2329.60;;;;;;5031793;28;20032;-56
2023/05/27 01:01:59;;;;;;;10.45;6.65;;;384.10;2329.60;;;;;;5031877;28;20037;-56
2023/05/27 01:04:26;;;;;;;10.23;6.05;;;384.10;2329.60;;;;;;5031569;28;20014;-57
2023/05/27 01:07:00;;;;;;;10.50;7.47;;;384.10;2329.60;;;;;;5031429;28;20124;-54
2023/05/27 01:09:38;;;;;;;8.82;6.07;;;384.10;2329.60;;;;;;5018757;28;20022;-55
2023/05/27 01:12:22;;;;;;;10.45;6.75;;;384.10;2329.60;;;;;;5031539;28;20391;-56
2023/05/27 01:14:51;;;;;;;12.55;6.50;;;384.10;2329.60;;;;;;5029878;28;20029;-54
2023/05/27 01:17:18;;;;;;;9.88;6.25;;;384.10;2329.60;;;;;;5031151;28;20431;-57
2023/05/27 01:19:45;;;;;;;10.73;6.63;;;384.10;2329.60;;;;;;5031351;28;20108;-56
2023/05/27 01:22:15;;;;;;;8.65;6.40;;;384.10;2329.60;;;;;;5030679;28;20037;-53
2023/05/27 01:24:44;;;;;;;11.55;5.85;;;384.20;2329.60;;;;;;5031105;28;20025;-54
2023/05/27 01:27:15;;;;;;;12.90;5.68;;;384.10;2329.60;;;;;;5030861;28;20033;-57
2023/05/27 01:29:41;;;;;;;10.00;6.70;;;384.10;2329.60;;;;;;5031156;28;20021;-56
2023/05/27 01:32:28;;;;;;;10.85;6.53;;;384.20;2329.60;;;;;;5026556;28;20029;-57
2023/05/27 01:35:07;;;;;;;9.68;6.57;;;384.10;2329.60;;;;;;5025471;28;20036;-57
2023/05/27 01:37:40;;;;;;;9.52;6.80;;;384.10;2329.60;;;;;;5016387;28;20049;-57
2023/05/27 01:40:08;;;;;;;8.55;6.88;;;384.00;2329.60;;;;;;5014846;28;20536;-55
2023/05/27 01:42:35;;;;;;;10.75;6.40;;;384.00;2329.60;;;;;;5019858;28;20488;-56
2023/05/27 01:45:05;;;;;;;14.23;6.90;;;384.00;2329.60;;;;;;5011034;28;20026;-55
2023/05/27 01:47:31;;;;;;;10.43;7.32;;;384.00;2329.60;;;;;;5011193;28;20030;-54
2023/05/27 01:49:56;;;;;;;10.45;7.20;;;384.00;2329.60;;;;;;5023095;28;20082;-55
2023/05/27 01:52:22;;;;;;;17.63;6.03;;;384.00;2329.60;;;;;;5030683;28;20418;-55
2023/05/27 01:54:48;;;;;;;10.18;6.25;;;359.30;2329.60;;;;;;5029779;28;20021;-55
2023/05/27 01:57:13;;;;;;;10.18;5.93;;;384.00;2329.60;;;;;;5030656;28;20021;-54
2023/05/27 01:59:39;;;;;;;10.27;6.13;;;384.00;2329.60;;;;;;5030534;28;20029;-56
2023/05/27 02:02:05;;;;;;;9.35;6.18;;;359.30;2329.60;;;;;;5030701;28;20479;-55
2023/05/27 02:04:31;;;;;;;9.65;6.35;;;359.30;2329.60;;;;;;5030792;28;20025;-54
2023/05/27 02:06:56;;;;;;;11.90;7.90;;;359.30;2329.60;;;;;;5030166;28;20563;-55
2023/05/27 02:09:22;;;;;;;11.77;6.90;;;359.30;2329.60;;;;;;5030272;28;20026;-55
2023/05/27 02:11:48;;;;;;;10.15;6.20;;;359.30;2329.60;;;;;;5030242;28;20045;-55
2023/05/27 02:14:14;;;;;;;8.73;6.20;;;359.30;2329.60;;;;;;5030644;28;20061;-56
2023/05/27 02:16:40;;;;;;;9.93;6.57;;;359.20;2329.60;;;;;;5030059;28;20117;-57
2023/05/27 02:19:05;;;;;;;11.88;8.32;;;359.20;2329.60;;;;;;5030361;28;20595;-55
2023/05/27 02:21:32;;;;;;;9.20;6.68;;;359.20;2329.60;;;;;;5030218;28;20116;-57
2023/05/27 02:23:58;;;;;;;9.65;6.30;;;359.10;2329.60;;;;;;5029819;28;20108;-57
2023/05/27 02:26:24;;;;;;;11.30;7.22;;;359.10;2329.60;;;;;;5028881;28;20383;-57
2023/05/27 02:28:50;;;;;;;8.73;6.93;;;359.20;2329.60;;;;;;5018349;28;20030;-54
2023/05/27 02:31:16;;;;;;;6.97;5.57;;;359.20;2329.60;;;;;;5029859;28;20120;-55
2023/05/27 02:33:41;;;;;;;8.77;6.35;;;359.30;2329.60;;;;;;5009676;28;20416;-56
2023/05/27 02:36:07;;;;;;;10.65;6.82;;;359.20;2329.60;;;;;;5022485;28;20030;-58
2023/05/27 02:38:33;;;;;;;11.00;7.30;;;359.30;2329.60;;;;;;5028955;28;20054;-58
2023/05/27 02:40:59;;;;;;;9.95;7.13;;;359.30;2329.60;;;;;;5029468;28;20021;-55
2023/05/27 02:43:26;;;;;;;11.18;6.80;;;359.30;2329.60;;;;;;5029216;28;20402;-55
2023/05/27 02:45:51;;;;;;;8.55;6.68;;;359.30;2329.60;;;;;;5029638;28;20021;-55
2023/05/27 02:48:18;;;;;;;11.55;8.18;;;359.20;2329.60;;;;;;5029541;28;20044;-54
2023/05/27 02:50:43;;;;;;;15.73;8.85;;;359.20;2329.60;;;;;;5029400;28;20024;-55
2023/05/27 02:53:09;;;;;;;10.52;7.00;;;359.30;2329.60;;;;;;5029457;28;20033;-55
2023/05/27 02:55:35;;;;;;;11.00;7.97;;;359.20;2329.60;;;;;;5029667;28;20021;-55
2023/05/27 02:58:01;;;;;;;10.75;7.88;;;359.10;2329.60;;;;;;5029631;28;20384;-55
2023/05/27 03:00:27;;;;;;;11.43;7.47;;;359.10;2329.60;;;;;;5029036;28;20029;-55
2023/05/27 03:02:52;;;;;;;11.27;6.97;;;359.10;2329.60;;;;;;5029603;28;20029;-55
2023/05/27 03:05:18;;;;;;;8.75;6.43;;;359.20;2329.60;;;;;;5029194;28;20127;-55
2023/05/27 03:07:44;;;;;;;8.90;6.47;;;359.10;2329.60;;;;;;5028972;28;20395;-55
2023/05/27 03:10:10;;;;;;;11.35;7.15;;;359.30;2329.60;;;;;;5029173;28;20475;-57
2023/05/27 03:12:36;;;;;;;11.30;7.00;;;359.30;2329.60;;;;;;5029133;28;20029;-55
2023/05/27 03:15:02;;;;;;;11.10;7.38;;;359.30;2329.60;;;;;;5029089;28;20026;-55
2023/05/27 03:17:28;;;;;;;11.32;6.90;;;359.30;2329.60;;;;;;5029198;28;20032;-55
2023/05/27 03:19:53;;;;;;;10.23;7.38;;;359.30;2329.60;;;;;;5029200;28;20056;-55
2023/05/27 03:22:19;;;;;;;9.32;6.03;;;359.30;2329.60;;;;;;5029213;28;20025;-55
2023/05/27 03:24:45;;;;;;;8.15;5.70;;;384.00;2329.60;;;;;;5028968;28;20032;-56
2023/05/27 03:27:10;;;;;;;10.20;5.57;;;384.00;2329.60;;;;;;5029054;28;20021;-57
2023/05/27 03:29:36;;;;;;;10.27;6.57;;;384.00;2329.60;;;;;;5028723;28;20024;-57
2023/05/27 03:32:02;;;;;;;12.52;6.63;;;384.00;2329.60;;;;;;5029183;28;20552;-54
2023/05/27 03:34:28;;;;;;;10.75;6.30;;;384.10;2329.60;;;;;;5028909;28;20053;-56
2023/05/27 03:36:53;;;;;;;6.93;5.50;;;384.00;2329.60;;;;;;5029179;28;20041;-55
2023/05/27 03:39:19;;;;;;;11.88;6.10;;;384.00;2329.60;;;;;;5028513;28;20058;-55
2023/05/27 03:41:45;;;;;;;9.98;5.97;;;384.10;2329.60;;;;;;5029190;28;20394;-54
2023/05/27 03:44:10;;;;;;;7.65;5.60;;;384.10;2329.60;;;;;;5028879;28;20371;-55
2023/05/27 03:46:36;;;;;;;9.05;6.05;;;384.30;2329.60;;;;;;5028688;28;20025;-55
2023/05/27 03:49:02;;;;;;;9.35;6.60;;;384.30;2329.60;;;;;;5029358;28;20056;-55
2023/05/27 03:51:28;;;;;;;8.18;6.03;;;384.40;2329.60;;;;;;5028853;28;20022;-55
2023/05/27 03:53:54;;;;;;;10.13;6.07;;;384.40;2329.60;;;;;;5029060;28;20518;-55
2023/05/27 03:56:20;;;;;;;8.63;6.05;;;384.50;2329.60;;;;;;5028898;28;20030;-55
2023/05/27 03:58:45;;;;;;;12.80;5.57;;;384.70;2329.60;;;;;;5028938;28;20084;-56
2023/05/27 04:01:11;;;;;;;10.25;6.10;;;384.70;2329.60;;;;;;5028709;28;20510;-55
2023/05/27 04:03:39;;;;;;;8.07;5.43;;;384.80;2329.60;;;;;;5015771;28;20022;-55
2023/05/27 04:06:06;;;;;;;7.70;5.88;;;384.90;2329.60;;;;;;5028733;28;20471;-56
2023/05/27 04:08:32;;;;;;;7.53;5.68;;;384.90;2329.60;;;;;;5025108;28;20040;-55
2023/05/27 04:10:57;;;;;;;8.40;6.20;;;409.60;2355.20;;;;;;5028379;28;20025;-55
2023/05/27 04:13:23;;;;;;;11.20;6.10;;;409.70;2355.20;;;;;;5028856;28;20025;-54
2023/05/27 04:15:49;;;;;;;9.52;6.43;;;409.70;2355.20;;;;;;5028204;28;20025;-55
2023/05/27 04:18:15;;;;;;;8.65;6.20;;;409.80;2355.20;;;;;;5030188;28;20515;-56
2023/05/27 04:20:42;;;;;;;11.05;6.72;;;409.90;2355.20;;;;;;5032374;28;20029;-55
2023/05/27 04:23:09;;;;;;;9.38;6.95;;;409.90;2355.20;;;;;;5032532;28;20156;-53
2023/05/27 04:25:35;;;;;;;8.23;5.88;;;410.00;2355.20;;;;;;5032481;28;20406;-55
2023/05/27 04:28:04;;;;;;;8.35;6.22;;;410.10;2355.20;;;;;;5032276;28;20025;-53
2023/05/27 04:30:34;;;;;;;8.23;6.13;;;410.10;2355.20;;;;;;5032047;28;20056;-53
2023/05/27 04:33:00;;;;;;;10.48;7.10;;;410.20;2355.20;;;;;;5029289;28;20504;-53
2023/05/27 04:35:26;;;;;;;11.73;7.00;;;410.20;2355.20;;;;;;5021329;28;20021;-55
2023/05/27 04:37:52;;;;;;;8.68;6.80;;;410.10;2355.20;;;;;;5032005;28;20049;-55
2023/05/27 04:40:19;;;;;;;11.10;7.45;;;410.20;2355.20;;;;;;5031568;28;20106;-55
2023/05/27 04:42:44;;;;;;;11.68;7.05;;;410.20;2355.20;;;;;;5031778;28;20029;-53
2023/05/27 04:45:11;;;;;;;10.05;6.40;;;410.20;2355.20;;;;;;5031619;28;20041;-53
2023/05/27 04:47:37;;;;;;;11.52;6.53;;;410.30;2355.20;;;;;;5032018;28;20033;-55
2023/05/27 04:50:04;;;;;;;13.07;7.78;;;410.30;2355.20;;;;;;5031950;28;20112;-55
2023/05/27 04:52:36;;;;;;;7.80;6.13;;;410.40;2355.20;;;;;;5032052;28;20072;-56
2023/05/27 04:55:03;;;;;;;11.85;6.95;;;410.50;2355.20;;;;;;5031799;28;20036;-56
2023/05/27 04:57:29;;;;;;;14.15;7.13;;;435.20;2355.20;;;;;;5031596;28;20057;-56
2023/05/27 05:02:34;;;;;;;9.18;6.30;;;435.40;2355.20;;;;;;5031604;28;20038;-55
2023/05/27 05:05:02;;;;;;;9.93;6.55;;;435.60;2355.20;;;;;;5031740;28;20052;-55
2023/05/27 05:07:28;;;;;;;7.95;6.47;;;436.00;2355.20;;;;;;5030866;28;20041;-55
2023/05/27 05:09:53;;;;;;;11.77;7.13;;;461.20;2380.80;;;;;;5031676;28;20128;-57
2023/05/27 05:12:19;;;;;;;10.57;7.07;;;487.00;2380.80;;;;;;5031544;28;20483;-55
2023/05/27 05:14:45;;;;;;;10.82;7.20;;;512.00;2380.80;;;;;;5031286;28;20021;-55
2023/05/27 05:17:10;;;;;;;8.43;6.22;;;512.40;2380.80;;;;;;5021792;28;20017;-55
2023/05/27 05:19:36;;;;;;;13.27;6.55;;;512.60;2380.80;;;;;;5031450;28;20475;-54
2023/05/27 05:22:02;;;;;;;8.50;7.03;;;538.40;2406.40;;;;;;5031362;28;20391;-55
2023/05/27 05:24:27;;;;;;;9.20;7.07;;;640.20;2380.80;;;;;;5031174;28;20033;-54
2023/05/27 05:26:53;;;;;;;11.32;7.32;;;666.00;2124.80;;;;;;5031512;28;20517;-56
2023/05/27 05:29:19;;;;;;;11.02;7.50;;;640.90;2150.40;;;;;;5029570;28;20048;-58
2023/05/27 05:31:45;;;;;;;19.60;8.88;;;666.10;2099.20;;;;;;5031334;28;20037;-55
2023/05/27 05:34:11;;;;;;;18.55;7.72;;;665.70;2124.80;;;;;;5023019;28;20714;-53
2023/05/27 05:36:37;;;;;;;9.25;7.18;;;615.20;2227.20;;;;;;5025922;28;20041;-56
2023/05/27 05:39:04;;;;;;;8.38;6.25;;;615.20;2252.80;;;;;;5030773;28;20549;-55
2023/05/27 05:41:30;;;;;;;9.93;7.10;;;640.70;2176.00;;;;;;5030427;28;20091;-55
2023/05/27 05:43:55;;;;;;;10.32;7.78;;;640.40;2176.00;;;;;;5030678;28;20018;-57
2023/05/27 05:46:21;;;;;;;9.13;7.25;;;640.30;2150.40;;;;;;5030491;28;20470;-54
2023/05/27 05:48:47;;;;;;;11.45;8.82;;;640.70;2150.40;;;;;;5030772;28;20057;-54
2023/05/27 05:51:13;;;;;;;9.80;8.18;;;666.20;2073.60;;;;;;5030829;28;20029;-57
2023/05/27 05:53:39;;;;;;;9.55;7.40;;;717.40;1945.60;;;;;;5022035;28;20030;-55
2023/05/27 05:56:05;;;;;;;10.75;8.13;;;691.80;1945.60;;;;;;5030082;28;20033;-57
2023/05/27 05:58:30;;;;;;;13.77;9.13;;;666.20;2048.00;;;;;;5030417;28;20021;-55
2023/05/27 06:00:56;;;;;;;9.82;8.75;;;666.40;2048.00;;;;;;5030102;28;20450;-55
2023/05/27 06:03:21;;;;;;;9.52;8.02;;;665.60;2073.60;;;;;;5030186;28;20108;-56
2023/05/27 06:05:47;;;;;;;11.63;9.10;;;665.70;2099.20;;;;;;5030132;28;20045;-55
2023/05/27 06:08:13;;;;;;;12.82;8.73;;;666.30;2048.00;;;;;;5030524;28;20026;-57
2023/05/27 06:10:38;;;;;;;8.85;7.88;;;666.00;2073.60;;;;;;5030295;28;20025;-57
2023/05/27 06:13:05;;;;;;;9.02;7.70;;;665.70;2073.60;;;;;;5030596;28;20688;-56
2023/05/27 06:15:32;;;;;;;10.85;8.98;;;665.60;2073.60;;;;;;5030531;28;20071;-58
2023/05/27 06:17:57;;;;;;;9.73;8.27;;;615.20;2150.40;;;;;;5030131;28;20029;-58
2023/05/27 06:20:23;;;;;;;12.98;8.50;;;615.20;2176.00;;;;;;5030291;28;20459;-58
2023/05/27 06:22:49;;;;;;;12.88;9.73;;;614.80;2227.20;;;;;;5030125;28;20032;-58
2023/05/27 06:25:15;;;;;;;13.65;8.93;;;640.20;2201.60;;;;;;5030303;28;20538;-58
2023/05/27 06:27:41;;;;;;;12.63;9.25;;;716.80;2022.40;;;;;;5029988;28;20022;-58
2023/05/27 06:30:07;;;;;;;10.13;9.02;;;717.70;1920.00;;;;;;5029902;28;20020;-58
2023/05/27 06:32:33;;;;;;;9.77;8.77;;;717.20;1920.00;;;;;;5029952;28;20475;-57
2023/05/27 06:34:59;;;;;;;10.68;9.52;;;691.50;1971.20;;;;;;5029682;28;20026;-63
2023/05/27 06:37:24;;;;;;;10.57;9.45;;;640.70;2099.20;;;;;;5029688;28;20067;-58
2023/05/27 06:39:50;;;;;;;11.75;9.73;;;615.20;2201.60;;;;;;5029714;28;20113;-58
2023/05/27 06:42:16;;;;;;;11.18;10.05;;;614.50;2252.80;;;;;;5029769;28;20033;-58
2023/05/27 06:44:42;;;;;;;13.07;10.50;;;589.30;2329.60;;;;;;5030042;28;20468;-58
2023/05/27 06:47:08;;;;;;;12.85;10.50;;;589.00;2380.80;;;;;;5029394;28;20446;-58
2023/05/27 06:49:33;;;;;;;13.55;10.27;;;589.20;2380.80;;;;;;5029713;28;20063;-58
2023/05/27 06:51:59;;;;;;;12.75;11.07;;;588.80;2432.00;;;;;;5028535;28;20113;-57
2023/05/27 06:54:25;;;;;;;13.32;9.70;;;588.80;2432.00;;;;;;5028767;28;20025;-61
2023/05/27 06:56:50;;;;;;;18.23;11.35;;;564.00;2432.00;;;;;;5029408;28;20029;-57
2023/05/27 06:59:16;;;;;;;14.35;10.57;;;588.80;2432.00;;;;;;5029711;28;20104;-58
2023/05/27 07:01:42;;;;;;;13.80;10.57;;;588.80;2432.00;;;;;;5028311;28;20040;-60
2023/05/27 07:04:08;;;;;;;13.27;10.52;;;588.80;2432.00;;;;;;5015633;28;20029;-59
2023/05/27 07:06:33;;;;;;;14.88;11.63;;;588.80;2432.00;;;;;;5010778;28;20049;-63
2023/05/27 07:08:59;;;;;;;16.48;12.10;;;563.90;2432.00;;;;;;5009611;28;20026;-58
2023/05/27 07:11:26;;;;;;;14.02;11.32;;;563.90;2432.00;;;;;;5017146;28;20107;-62
2023/05/27 07:13:52;;;;;;;12.73;11.38;;;563.80;2432.00;;;;;;5023919;28;20043;-59
2023/05/27 07:16:19;;;;;;;14.13;10.13;;;564.00;2432.00;;;;;;5029016;28;20026;-61
2023/05/27 07:18:44;;;;;;;13.85;12.45;;;564.10;2432.00;;;;;;5025288;28;20033;-57
2023/05/27 07:21:10;;;;;;;16.25;12.38;;;614.40;2432.00;;;;;;5029052;28;20059;-57
2023/05/27 07:23:36;;;;;;;15.23;11.38;;;614.60;2432.00;;;;;;5020635;28;20798;-57
2023/05/27 07:26:01;;;;;;;16.58;13.02;;;614.80;2432.00;;;;;;5019094;28;20037;-58
2023/05/27 07:28:27;;;;;;;13.80;12.10;;;614.90;2406.40;;;;;;5029303;28;20029;-58
2023/05/27 07:30:53;;;;;;;14.23;12.73;;;717.40;2073.60;;;;;;5029254;28;20033;-58
2023/05/27 07:33:18;;;;;;;13.85;12.48;;;717.50;1996.80;;;;;;5028741;28;20026;-57
2023/05/27 07:35:44;;;;;;;18.75;13.82;;;742.50;1945.60;;;;;;5029041;28;20033;-58
2023/05/27 07:38:10;;;;;;;13.35;12.00;;;768.60;1817.60;;;;;;5027843;28;20479;-76
2023/05/27 07:40:36;;;;;;;14.50;12.27;;;768.60;1817.60;;;;;;5027981;28;20025;-59
2023/05/27 07:43:02;;;;;;;14.95;12.50;;;794.10;1766.40;;;;;;5028679;28;20479;-62
2023/05/27 07:45:28;;;;;;;14.27;12.77;;;844.90;1664.00;;;;;;5029025;28;20033;-76
2023/05/27 07:47:54;;;;;;;14.80;13.23;;;845.50;1612.80;;;;;;5028629;28;20439;-70
2023/05/27 07:50:20;;;;;;;16.40;13.82;;;;;;;;;;5028684;28;20057;-57
2023/05/27 07:52:46;;;;;;;14.13;12.80;;;921.90;1459.20;;;;;;5029503;28;20345;-59
2023/05/27 07:55:12;;;;;;;14.13;12.70;;;973.20;1356.80;;;;;;5032126;28;20097;-69
2023/05/27 07:57:38;;;;;;;13.77;12.38;;;973.30;1356.80;;;;;;5032673;28;20021;-60
2023/05/27 08:00:06;;;;;;;17.40;12.75;;;921.90;1408.00;;;;;;5032778;28;20033;-59
2023/05/27 08:02:31;;;;;;;15.45;13.90;;;845.40;1536.00;;;;;;5032467;28;20041;-77
2023/05/27 08:04:57;;;;;;;18.88;14.45;;;794.00;1638.40;;;;;;5032217;28;20083;-58
2023/05/27 08:07:23;;;;;;;16.05;14.38;;;743.00;1740.80;;;;;;5032650;28;20032;-75
2023/05/27 08:09:49;;;;;;;18.85;15.75;;;717.40;1766.40;;;;;;5032427;28;20037;-61
2023/05/27 08:12:14;;;;;;;15.98;14.30;;;691.90;1817.60;;;;;;5032723;28;20040;-59
2023/05/27 08:14:40;;;;;;;16.48;14.88;;;666.50;1868.80;;;;;;5032501;28;20021;-58
2023/05/27 08:17:06;;;;;;;20.83;15.75;;;692.10;1843.20;;;;;;5032622;28;20026;-58
2023/05/27 08:19:32;;;;;;;17.38;15.57;;;716.80;1843.20;;;;;;5031677;28;20036;-63
2023/05/27 08:21:58;;;;;;;17.25;15.55;;;692.10;1868.80;;;;;;5032089;28;20030;-58
2023/05/27 08:24:24;;;;;;;20.38;17.92;;;691.70;1868.80;;;;;;5032293;28;20025;-77
2023/05/27 08:26:50;;;;;;;18.95;16.33;;;691.20;1920.00;;;;;;5032146;28;20052;-58
2023/05/27 08:29:16;;;;;;;21.50;18.83;;;665.70;1996.80;;;;;;5032317;28;20045;-57
2023/05/27 08:31:42;;;;;;;20.05;18.05;;;665.70;2022.40;;;;;;5032257;28;20036;-57
2023/05/27 08:34:08;;;;;;;20.40;18.05;;;666.00;1971.20;;;;;;5031847;28;20017;-75
2023/05/27 08:36:33;;;;;;;23.20;18.83;;;666.00;1971.20;;;;;;5029102;28;20112;-74
2023/05/27 08:39:00;;;;;;;22.27;20.08;;;666.10;1945.60;;;;;;5031246;28;20132;-64
2023/05/27 08:41:30;;;;;;;25.02;20.45;;;666.30;1971.20;;;;;;5030642;28;20131;-71
2023/05/27 08:43:56;;;;;;;22.10;19.77;;;691.80;1945.60;;;;;;5031485;28;20021;-68
2023/05/27 08:46:23;;;;;;;20.92;18.80;;;691.70;1894.40;;;;;;5032117;28;20130;-57
2023/05/27 08:48:49;;;;;;;21.95;18.85;;;691.20;1920.00;;;;;;5031328;28;20049;-77
2023/05/27 08:51:19;;;;;;;24.38;18.00;;;666.30;1971.20;;;;;;5031812;28;20029;-74
2023/05/27 08:53:46;;;;;;;24.25;18.77;;;666.00;1996.80;;;;;;5024539;28;20052;-57
2023/05/27 08:56:14;;;;;;;20.80;18.73;;;665.90;1996.80;;;;;;5012223;28;20380;-73
2023/05/27 08:58:41;;;;;;;20.58;18.58;;;665.60;2048.00;;;;;;5024528;28;20032;-58
2023/05/27 09:01:08;;;;;;;20.33;18.23;;;665.60;2048.00;;;;;;5021678;28;20484;-73
2023/05/27 09:03:34;;;;;;;19.08;17.08;;;666.10;2048.00;;;;;;5010929;28;20084;-56
2023/05/27 09:06:03;;;;;;;21.98;19.67;;;691.40;1971.20;;;;;;5027647;28;20403;-68
2023/05/27 09:08:30;;;;;;;20.63;18.42;;;691.90;1971.20;;;;;;5031406;28;20042;-57
2023/05/27 09:10:56;;;;;;;22.98;19.92;;;717.40;1920.00;;;;;;5030933;28;20391;-61
2023/05/27 09:13:28;;;;;;;21.67;19.42;;;717.30;1945.60;;;;;;5031525;28;20029;-57
2023/05/27 09:16:01;;;;;;;20.33;18.02;;;717.40;1971.20;;;;;;5031545;28;20076;-68
2023/05/27 09:18:35;;;;;;;20.02;17.92;;;717.10;1945.60;;;;;;5023142;28;20034;-70
2023/05/27 09:21:01;;;;;;;20.60;18.50;;;692.10;1945.60;;;;;;5014707;28;20030;-60
2023/05/27 09:23:27;;;;;;;19.80;17.80;;;691.70;1971.20;;;;;;5012946;28;20084;-68
2023/05/27 09:25:53;;;;;;;20.23;18.25;;;691.30;1996.80;;;;;;5013171;28;20022;-57
2023/05/27 09:28:26;;;;;;;19.33;17.15;;;666.40;2022.40;;;;;;5027866;28;20029;-56
2023/05/27 09:31:04;;;;;;;20.75;18.70;;;665.80;2048.00;;;;;;5030523;28;20538;-77
2023/05/27 09:33:35;;;;;;;20.55;18.35;;;666.00;2048.00;;;;;;5030648;28;20383;-59
2023/05/27 09:36:02;;;;;;;21.98;19.65;;;665.90;2073.60;;;;;;5030949;28;20029;-58
2023/05/27 09:38:34;;;;;;;21.58;18.38;;;665.90;2073.60;;;;;;5030230;28;20049;-63
2023/05/27 09:41:01;;;;;;;22.50;18.63;;;666.00;2022.40;;;;;;5030449;28;20140;-68
2023/05/27 09:43:28;;;;;;;22.23;18.67;;;666.00;2022.40;;;;;;5029729;28;20025;-58
2023/05/27 09:46:02;;;;;;;19.60;17.35;;;666.00;2022.40;;;;;;5030829;28;20065;-57
2023/05/27 09:48:31;;;;;;;20.67;18.48;;;666.00;2048.00;;;;;;5030736;28;20021;-65
2023/05/27 09:50:57;;;;;;;22.65;18.92;;;665.70;2073.60;;;;;;5025378;28;20549;-58
2023/05/27 09:53:24;;;;;;;22.83;19.67;;;640.90;2099.20;;;;;;5022507;28;20033;-57
2023/05/27 09:55:52;;;;;;;22.13;18.58;;;640.90;2099.20;;;;;;5030533;28;20464;-58
2023/05/27 09:58:18;;;;;;;27.33;20.00;;;665.60;2124.80;;;;;;5028112;28;20388;-64
2023/05/27 10:00:47;;;;;;;25.35;19.42;;;666.20;2073.60;;;;;;5017851;28;20475;-57
2023/05/27 10:03:13;;;;;;;22.33;19.85;;;666.50;2022.40;;;;;;5030132;28;20041;-57
2023/05/27 10:05:40;;;;;;;21.25;19.15;;;691.30;2048.00;;;;;;5029758;28;20456;-64
2023/05/27 10:08:06;;;;;;;21.25;19.05;;;691.30;2048.00;;;;;;5030261;28;20536;-72
2023/05/27 10:10:33;;;;;;;21.92;19.65;;;691.30;2022.40;;;;;;5030133;28;20199;-58
2023/05/27 10:12:59;;;;;;;22.08;19.77;;;691.40;2022.40;;;;;;5030194;28;20753;-58
2023/05/27 10:15:33;;;;;;;27.73;20.58;;;691.80;1996.80;;;;;;5029241;28;20471;-58
2023/05/27 10:17:59;;;;;;;;;;;691.70;1996.80;;;;;;5030310;28;20026;-57
2023/05/27 10:20:31;;;;;;;21.63;18.90;;;691.40;1996.80;;;;;;5030118;28;19905;-57
2023/05/27 10:23:18;;;;;;;24.42;19.80;;;691.40;1996.80;;;;;;5029875;28;20043;-58
2023/05/27 10:25:49;;;;;;;21.15;19.00;;;691.70;1996.80;;;;;;5029643;28;20044;-57
2023/05/27 10:28:35;;;;;;;21.60;18.75;;;692.10;1971.20;;;;;;5030354;28;20025;-60
2023/05/27 10:31:17;;;;;;;23.70;19.20;;;716.90;1971.20;;;;;;5029663;28;20510;-58
2023/05/27 10:33:52;;;;;;;20.20;17.63;;;716.90;1996.80;;;;;;5030009;28;20510;-58
2023/05/27 10:36:36;;;;;;;35.88;19.48;;;717.20;1920.00;;;;;;5029743;28;20033;-58
2023/05/27 10:39:05;;;;;;;20.25;17.98;;;717.10;1945.60;;;;;;5029066;28;20464;-67
2023/05/27 10:42:00;;;;;;;22.15;18.67;;;716.90;1945.60;;;;;;5029613;28;20041;-60
2023/05/27 10:44:30;;;;;;;23.73;19.45;;;716.80;1945.60;;;;;;5027177;28;20120;-58
2023/05/27 10:47:10;;;;;;;22.75;19.13;;;691.90;1945.60;;;;;;5027486;28;20022;-59
2023/05/27 10:49:38;;;;;;;82.22;74.47;;;691.60;2022.40;;;;;;5026738;28;20033;-59
2023/05/27 10:52:14;;;;;;;23.70;20.50;;;691.60;1996.80;;;;;;5027396;28;20025;-57
2023/05/27 10:54:42;;;;;;;20.30;18.02;;;691.80;1996.80;;;;;;5026678;28;20037;-70
2023/05/27 10:57:08;;;;;;;25.17;19.42;;;691.80;1996.80;;;;;;5027168;28;20067;-58
2023/05/27 10:59:52;;;;;;;20.75;18.55;;;691.80;1996.80;;;;;;5026535;28;20052;-78
2023/05/27 11:02:19;;;;;;;26.38;19.15;;;691.40;1971.20;;;;;;5026669;28;20115;-77
2023/05/27 11:04:45;;;;;;;19.58;17.42;;;691.60;2022.40;;;;;;5027396;28;20021;-57
2023/05/27 11:07:11;;;;;;;19.65;17.60;;;692.10;1971.20;;;;;;5025897;28;20069;-67
2023/05/27 11:09:47;;;;;;;21.92;17.60;;;692.00;1971.20;;;;;;5026352;28;20060;-58
2023/05/27 11:12:17;;;;;;;22.02;19.85;;;691.70;1996.80;;;;;;5027215;28;20099;-65
2023/05/27 11:14:44;;;;;;;23.42;19.85;;;691.60;2048.00;;;;;;5027197;28;20041;-73
2023/05/27 11:17:11;;;;;;;23.73;18.77;;;691.40;2048.00;;;;;;5026957;28;20026;-78
2023/05/27 11:19:42;;;;;;;25.45;22.15;;;691.40;2073.60;;;;;;5025943;28;20049;-57
2023/05/27 11:22:09;;;;;;;22.52;19.95;;;691.30;2099.20;;;;;;5022412;28;20038;-60
2023/05/27 11:24:36;;;;;;;22.25;19.83;;;691.40;2048.00;;;;;;5029481;28;20037;-69
2023/05/27 11:27:12;;;;;;;28.25;24.58;;;691.70;2048.00;;;;;;5029453;28;20021;-68
2023/05/27 11:29:39;;;;;;;24.98;19.73;;;692.00;1971.20;;;;;;5028886;28;20018;-58
2023/05/27 11:32:05;;;;;;;22.15;19.67;;;692.00;2073.60;;;;;;5029624;28;20029;-58
2023/05/27 11:34:34;;;;;;;21.77;18.67;;;691.80;2048.00;;;;;;5029093;28;20022;-78
2023/05/27 11:37:04;;;;;;;37.42;25.48;;;691.70;2048.00;;;;;;5028559;28;20037;-78
2023/05/27 11:39:31;;;;;;;21.83;18.52;;;691.70;2022.40;;;;;;5028535;28;20050;-58
2023/05/27 11:41:57;;;;;;;21.63;19.00;;;691.30;2099.20;;;;;;5028366;28;20045;-61
2023/05/27 11:44:24;;;;;;;28.08;20.02;;;691.20;2099.20;;;;;;5029033;28;20448;-58
2023/05/27 11:46:52;;;;;;;19.08;14.10;;;666.50;2099.20;;;;;;5028896;28;20480;-58
2023/05/27 11:49:19;;;;;;;17.10;13.57;;;666.10;2099.20;;;;;;5028670;28;20458;-77
2023/05/27 11:51:49;;;;;;;17.05;14.52;;;665.80;2099.20;;;;;;5029135;28;20036;-58
2023/05/27 11:54:20;;;;;;;14.85;13.30;;;665.90;2124.80;;;;;;5028201;28;20071;-60
2023/05/27 11:56:47;;;;;;;14.63;13.05;;;640.90;2048.00;;;;;;5028859;28;20104;-57
2023/05/27 11:59:13;;;;;;;15.40;13.82;;;665.90;2124.80;;;;;;5029085;28;20056;-70
2023/05/27 12:01:43;;;;;;;16.30;13.60;;;666.20;2150.40;;;;;;5028816;28;20029;-57
2023/05/27 12:04:09;;;;;;;16.40;14.70;;;665.70;2176.00;;;;;;5028677;28;20025;-59
2023/05/27 12:06:38;;;;;;;16.33;13.10;;;665.80;2176.00;;;;;;5028969;28;20483;-57
2023/05/27 12:09:05;;;;;;;17.52;14.85;;;665.70;2124.80;;;;;;5028673;28;20379;-58